sensor_id;sensor_type;location;lat;lon;timestamp;P1;durP1;ratioP1;P2;durP2;ratioP2
51814;SDS011;37874;53.158;6.766;2024-03-23T00:54:28;6.10;;;2.00;;
51814;SDS011;37874;53.158;6.766;2024-03-23T00:56:55;9.52;;;2.10;;
51814;SDS011;37874;53.158;6.766;2024-03-23T00:59:21;6.65;;;1.90;;
51814;SDS011;37874;53.158;6.766;2024-03-23T01:01:53;5.30;;;1.75;;
51814;SDS011;37874;53.158;6.766;2024-03-23T01:04:20;8.70;;;1.92;;
51814;SDS011;37874;53.158;6.766;2024-03-23T01:06:45;6.70;;;1.75;;
51814;SDS011;37874;53.158;6.766;2024-03-23T01:09:13;6.63;;;1.88;;
51814;SDS011;37874;53.158;6.766;2024-03-23T01:11:39;6.20;;;1.75;;
51814;SDS011;37874;53.158;6.766;2024-03-23T01:14:06;7.53;;;1.95;;
51814;SDS011;37874;53.158;6.766;2024-03-23T01:16:34;5.95;;;1.55;;
51814;SDS011;37874;53.158;6.766;2024-03-23T01:19:02;6.05;;;1.75;;
51814;SDS011;37874;53.158;6.766;2024-03-23T01:21:27;6.28;;;2.10;;
51814;SDS011;37874;53.158;6.766;2024-03-23T01:23:53;5.85;;;1.70;;
51814;SDS011;37874;53.158;6.766;2024-03-23T01:26:19;7.15;;;1.90;;
51814;SDS011;37874;53.158;6.766;2024-03-23T01:28:45;6.05;;;1.83;;
51814;SDS011;37874;53.158;6.766;2024-03-23T01:31:11;6.35;;;2.10;;
51814;SDS011;37874;53.158;6.766;2024-03-23T01:33:37;5.95;;;1.75;;
51814;SDS011;37874;53.158;6.766;2024-03-23T01:36:03;5.53;;;1.50;;
51814;SDS011;37874;53.158;6.766;2024-03-23T01:38:29;7.03;;;1.40;;
51814;SDS011;37874;53.158;6.766;2024-03-23T01:40:58;5.35;;;1.75;;
51814;SDS011;37874;53.158;6.766;2024-03-23T01:43:24;7.20;;;1.90;;
51814;SDS011;37874;53.158;6.766;2024-03-23T01:45:51;5.88;;;1.75;;
51814;SDS011;37874;53.158;6.766;2024-03-23T01:48:19;7.50;;;2.00;;
51814;SDS011;37874;53.158;6.766;2024-03-23T01:50:46;5.75;;;1.80;;
51814;SDS011;37874;53.158;6.766;2024-03-23T01:53:11;5.00;;;1.83;;
51814;SDS011;37874;53.158;6.766;2024-03-23T01:55:41;5.53;;;1.80;;
51814;SDS011;37874;53.158;6.766;2024-03-23T01:58:06;5.32;;;1.70;;
51814;SDS011;37874;53.158;6.766;2024-03-23T02:00:32;5.07;;;1.90;;
51814;SDS011;37874;53.158;6.766;2024-03-23T02:02:59;5.03;;;1.83;;
51814;SDS011;37874;53.158;6.766;2024-03-23T02:05:26;7.15;;;2.08;;
51814;SDS011;37874;53.158;6.766;2024-03-23T02:10:21;5.25;;;1.80;;
51814;SDS011;37874;53.158;6.766;2024-03-23T02:12:46;4.82;;;1.65;;
51814;SDS011;37874;53.158;6.766;2024-03-23T02:15:13;6.07;;;1.85;;
51814;SDS011;37874;53.158;6.766;2024-03-23T02:17:40;5.07;;;1.65;;
51814;SDS011;37874;53.158;6.766;2024-03-23T02:20:06;6.07;;;1.80;;
51814;SDS011;37874;53.158;6.766;2024-03-23T02:22:36;6.40;;;1.70;;
51814;SDS011;37874;53.158;6.766;2024-03-23T02:25:04;5.93;;;1.73;;
51814;SDS011;37874;53.158;6.766;2024-03-23T02:27:30;6.50;;;2.30;;
51814;SDS011;37874;53.158;6.766;2024-03-23T02:29:57;5.65;;;1.70;;
51814;SDS011;37874;53.158;6.766;2024-03-23T02:32:22;7.05;;;1.92;;
51814;SDS011;37874;53.158;6.766;2024-03-23T02:34:49;5.43;;;1.52;;
51814;SDS011;37874;53.158;6.766;2024-03-23T02:37:15;5.93;;;1.73;;
51814;SDS011;37874;53.158;6.766;2024-03-23T02:39:42;7.47;;;1.77;;
51814;SDS011;37874;53.158;6.766;2024-03-23T02:42:08;6.68;;;1.70;;
51814;SDS011;37874;53.158;6.766;2024-03-23T02:44:33;6.05;;;1.70;;
51814;SDS011;37874;53.158;6.766;2024-03-23T02:47:00;5.35;;;1.67;;
51814;SDS011;37874;53.158;6.766;2024-03-23T02:49:26;3.92;;;1.40;;
51814;SDS011;37874;53.158;6.766;2024-03-23T02:51:52;4.70;;;1.60;;
51814;SDS011;37874;53.158;6.766;2024-03-23T02:54:20;5.68;;;1.85;;
51814;SDS011;37874;53.158;6.766;2024-03-23T02:56:47;5.15;;;1.48;;
51814;SDS011;37874;53.158;6.766;2024-03-23T02:59:12;5.45;;;1.70;;
51814;SDS011;37874;53.158;6.766;2024-03-23T03:01:38;3.97;;;1.67;;
51814;SDS011;37874;53.158;6.766;2024-03-23T03:04:03;4.47;;;1.50;;
51814;SDS011;37874;53.158;6.766;2024-03-23T03:06:31;3.40;;;1.23;;
51814;SDS011;37874;53.158;6.766;2024-03-23T03:08:57;4.75;;;1.42;;
51814;SDS011;37874;53.158;6.766;2024-03-23T03:11:23;4.75;;;1.77;;
51814;SDS011;37874;53.158;6.766;2024-03-23T03:13:48;6.22;;;1.65;;
51814;SDS011;37874;53.158;6.766;2024-03-23T03:16:14;5.93;;;1.77;;
51814;SDS011;37874;53.158;6.766;2024-03-23T03:18:40;5.22;;;1.73;;
51814;SDS011;37874;53.158;6.766;2024-03-23T03:21:06;5.90;;;1.60;;
51814;SDS011;37874;53.158;6.766;2024-03-23T03:23:42;4.80;;;1.55;;
51814;SDS011;37874;53.158;6.766;2024-03-23T03:26:11;6.60;;;1.67;;
51814;SDS011;37874;53.158;6.766;2024-03-23T03:28:37;6.55;;;1.40;;
51814;SDS011;37874;53.158;6.766;2024-03-23T03:31:02;5.22;;;1.55;;
51814;SDS011;37874;53.158;6.766;2024-03-23T03:33:28;4.55;;;1.40;;
51814;SDS011;37874;53.158;6.766;2024-03-23T03:35:55;4.45;;;1.50;;
51814;SDS011;37874;53.158;6.766;2024-03-23T03:38:21;5.53;;;1.63;;
51814;SDS011;37874;53.158;6.766;2024-03-23T03:40:46;4.72;;;1.30;;
51814;SDS011;37874;53.158;6.766;2024-03-23T03:43:12;6.70;;;1.38;;
51814;SDS011;37874;53.158;6.766;2024-03-23T03:45:38;5.43;;;1.40;;
51814;SDS011;37874;53.158;6.766;2024-03-23T03:48:03;5.05;;;1.70;;
51814;SDS011;37874;53.158;6.766;2024-03-23T03:50:32;5.35;;;1.80;;
51814;SDS011;37874;53.158;6.766;2024-03-23T03:52:58;4.13;;;1.40;;
51814;SDS011;37874;53.158;6.766;2024-03-23T03:55:23;6.30;;;1.73;;
51814;SDS011;37874;53.158;6.766;2024-03-23T03:57:49;5.38;;;1.60;;
51814;SDS011;37874;53.158;6.766;2024-03-23T04:00:16;5.57;;;1.50;;
51814;SDS011;37874;53.158;6.766;2024-03-23T04:02:42;6.05;;;2.20;;
51814;SDS011;37874;53.158;6.766;2024-03-23T04:05:10;5.65;;;1.40;;
51814;SDS011;37874;53.158;6.766;2024-03-23T04:07:37;4.53;;;1.42;;
51814;SDS011;37874;53.158;6.766;2024-03-23T04:10:03;5.47;;;1.42;;
51814;SDS011;37874;53.158;6.766;2024-03-23T04:12:32;5.53;;;1.67;;
51814;SDS011;37874;53.158;6.766;2024-03-23T04:14:58;3.75;;;1.20;;
51814;SDS011;37874;53.158;6.766;2024-03-23T04:17:26;5.25;;;1.30;;
51814;SDS011;37874;53.158;6.766;2024-03-23T04:19:56;4.35;;;1.60;;
51814;SDS011;37874;53.158;6.766;2024-03-23T04:24:57;4.63;;;1.40;;
51814;SDS011;37874;53.158;6.766;2024-03-23T04:27:23;3.75;;;1.23;;
51814;SDS011;37874;53.158;6.766;2024-03-23T04:29:51;4.40;;;1.73;;
51814;SDS011;37874;53.158;6.766;2024-03-23T04:32:18;4.28;;;1.20;;
51814;SDS011;37874;53.158;6.766;2024-03-23T04:34:44;6.20;;;1.50;;
51814;SDS011;37874;53.158;6.766;2024-03-23T04:37:11;4.13;;;1.33;;
51814;SDS011;37874;53.158;6.766;2024-03-23T04:39:37;5.18;;;1.77;;
51814;SDS011;37874;53.158;6.766;2024-03-23T04:42:04;5.45;;;1.48;;
51814;SDS011;37874;53.158;6.766;2024-03-23T04:44:31;3.97;;;1.50;;
51814;SDS011;37874;53.158;6.766;2024-03-23T04:46:57;6.65;;;1.50;;
51814;SDS011;37874;53.158;6.766;2024-03-23T04:49:25;3.53;;;1.40;;
51814;SDS011;37874;53.158;6.766;2024-03-23T04:51:51;4.68;;;1.52;;
51814;SDS011;37874;53.158;6.766;2024-03-23T04:54:16;3.30;;;1.30;;
51814;SDS011;37874;53.158;6.766;2024-03-23T04:56:43;4.72;;;1.30;;
51814;SDS011;37874;53.158;6.766;2024-03-23T04:59:09;5.32;;;1.38;;
51814;SDS011;37874;53.158;6.766;2024-03-23T05:01:36;5.03;;;1.48;;
51814;SDS011;37874;53.158;6.766;2024-03-23T05:04:04;4.63;;;1.38;;
51814;SDS011;37874;53.158;6.766;2024-03-23T05:06:32;4.43;;;1.33;;
51814;SDS011;37874;53.158;6.766;2024-03-23T05:08:59;6.22;;;1.20;;
51814;SDS011;37874;53.158;6.766;2024-03-23T05:11:31;5.43;;;1.20;;
51814;SDS011;37874;53.158;6.766;2024-03-23T05:14:01;4.93;;;1.40;;
51814;SDS011;37874;53.158;6.766;2024-03-23T05:16:30;3.70;;;1.33;;
51814;SDS011;37874;53.158;6.766;2024-03-23T05:18:56;4.05;;;1.05;;
51814;SDS011;37874;53.158;6.766;2024-03-23T05:23:50;5.78;;;1.50;;
51814;SDS011;37874;53.158;6.766;2024-03-23T05:28:49;3.25;;;1.15;;
51814;SDS011;37874;53.158;6.766;2024-03-23T05:31:33;4.93;;;1.55;;
51814;SDS011;37874;53.158;6.766;2024-03-23T05:33:59;4.35;;;1.10;;
51814;SDS011;37874;53.158;6.766;2024-03-23T05:36:27;3.40;;;1.30;;
51814;SDS011;37874;53.158;6.766;2024-03-23T05:38:53;4.15;;;1.38;;
51814;SDS011;37874;53.158;6.766;2024-03-23T05:41:18;4.53;;;1.42;;
51814;SDS011;37874;53.158;6.766;2024-03-23T05:43:44;5.28;;;1.40;;
51814;SDS011;37874;53.158;6.766;2024-03-23T05:46:09;4.88;;;1.33;;
51814;SDS011;37874;53.158;6.766;2024-03-23T05:51:04;3.15;;;1.10;;
51814;SDS011;37874;53.158;6.766;2024-03-23T05:53:30;5.63;;;1.67;;
51814;SDS011;37874;53.158;6.766;2024-03-23T05:56:01;4.35;;;1.27;;
51814;SDS011;37874;53.158;6.766;2024-03-23T05:58:29;4.50;;;1.30;;
51814;SDS011;37874;53.158;6.766;2024-03-23T06:03:47;4.15;;;1.48;;
51814;SDS011;37874;53.158;6.766;2024-03-23T06:06:21;3.83;;;1.40;;
51814;SDS011;37874;53.158;6.766;2024-03-23T06:08:52;4.28;;;1.10;;
51814;SDS011;37874;53.158;6.766;2024-03-23T06:13:49;4.13;;;1.27;;
51814;SDS011;37874;53.158;6.766;2024-03-23T06:16:15;5.57;;;1.23;;
51814;SDS011;37874;53.158;6.766;2024-03-23T06:18:41;4.22;;;1.33;;
51814;SDS011;37874;53.158;6.766;2024-03-23T06:21:13;3.78;;;1.17;;
51814;SDS011;37874;53.158;6.766;2024-03-23T06:23:41;5.63;;;1.70;;
51814;SDS011;37874;53.158;6.766;2024-03-23T06:26:09;5.40;;;1.10;;
51814;SDS011;37874;53.158;6.766;2024-03-23T06:28:40;3.88;;;1.25;;
51814;SDS011;37874;53.158;6.766;2024-03-23T06:31:08;4.32;;;1.20;;
51814;SDS011;37874;53.158;6.766;2024-03-23T06:36:19;4.18;;;1.00;;
51814;SDS011;37874;53.158;6.766;2024-03-23T06:38:49;4.35;;;1.35;;
51814;SDS011;37874;53.158;6.766;2024-03-23T06:41:14;2.90;;;1.10;;
51814;SDS011;37874;53.158;6.766;2024-03-23T06:43:40;3.22;;;0.90;;
51814;SDS011;37874;53.158;6.766;2024-03-23T06:46:09;5.15;;;1.20;;
51814;SDS011;37874;53.158;6.766;2024-03-23T06:48:35;4.65;;;1.20;;
51814;SDS011;37874;53.158;6.766;2024-03-23T06:51:01;3.60;;;1.20;;
51814;SDS011;37874;53.158;6.766;2024-03-23T06:53:31;3.75;;;1.23;;
51814;SDS011;37874;53.158;6.766;2024-03-23T06:55:58;4.90;;;1.10;;
51814;SDS011;37874;53.158;6.766;2024-03-23T06:58:26;4.90;;;1.30;;
51814;SDS011;37874;53.158;6.766;2024-03-23T07:00:52;3.42;;;1.10;;
51814;SDS011;37874;53.158;6.766;2024-03-23T07:03:18;3.65;;;1.10;;
51814;SDS011;37874;53.158;6.766;2024-03-23T07:05:44;4.13;;;1.20;;
51814;SDS011;37874;53.158;6.766;2024-03-23T07:08:11;4.20;;;1.30;;
51814;SDS011;37874;53.158;6.766;2024-03-23T07:10:41;4.82;;;1.13;;
51814;SDS011;37874;53.158;6.766;2024-03-23T07:13:08;4.45;;;1.40;;
51814;SDS011;37874;53.158;6.766;2024-03-23T07:15:39;2.72;;;1.10;;
51814;SDS011;37874;53.158;6.766;2024-03-23T07:18:23;3.28;;;1.00;;
51814;SDS011;37874;53.158;6.766;2024-03-23T07:21:04;3.22;;;1.10;;
51814;SDS011;37874;53.158;6.766;2024-03-23T07:23:35;3.75;;;1.10;;
51814;SDS011;37874;53.158;6.766;2024-03-23T07:26:03;3.03;;;0.77;;
51814;SDS011;37874;53.158;6.766;2024-03-23T07:33:48;4.35;;;1.00;;
51814;SDS011;37874;53.158;6.766;2024-03-23T07:36:14;3.55;;;1.20;;
51814;SDS011;37874;53.158;6.766;2024-03-23T07:38:44;4.72;;;1.20;;
51814;SDS011;37874;53.158;6.766;2024-03-23T07:41:17;3.97;;;1.17;;
51814;SDS011;37874;53.158;6.766;2024-03-23T07:43:47;4.20;;;1.10;;
51814;SDS011;37874;53.158;6.766;2024-03-23T07:46:17;3.92;;;1.20;;
51814;SDS011;37874;53.158;6.766;2024-03-23T07:48:43;3.97;;;1.40;;
51814;SDS011;37874;53.158;6.766;2024-03-23T07:51:13;3.13;;;0.90;;
51814;SDS011;37874;53.158;6.766;2024-03-23T07:53:43;4.18;;;1.05;;
51814;SDS011;37874;53.158;6.766;2024-03-23T07:56:18;3.38;;;1.00;;
51814;SDS011;37874;53.158;6.766;2024-03-23T07:58:47;3.90;;;1.30;;
51814;SDS011;37874;53.158;6.766;2024-03-23T08:01:16;3.15;;;0.95;;
51814;SDS011;37874;53.158;6.766;2024-03-23T08:03:49;4.50;;;0.90;;
51814;SDS011;37874;53.158;6.766;2024-03-23T08:06:19;2.95;;;0.80;;
51814;SDS011;37874;53.158;6.766;2024-03-23T08:08:59;3.35;;;0.90;;
51814;SDS011;37874;53.158;6.766;2024-03-23T08:11:30;4.20;;;0.90;;
51814;SDS011;37874;53.158;6.766;2024-03-23T08:13:57;4.38;;;0.95;;
51814;SDS011;37874;53.158;6.766;2024-03-23T08:16:25;7.63;;;1.10;;
51814;SDS011;37874;53.158;6.766;2024-03-23T08:18:51;2.55;;;0.90;;
51814;SDS011;37874;53.158;6.766;2024-03-23T08:21:19;4.93;;;0.95;;
51814;SDS011;37874;53.158;6.766;2024-03-23T08:23:45;7.28;;;1.10;;
51814;SDS011;37874;53.158;6.766;2024-03-23T08:26:12;3.50;;;0.90;;
51814;SDS011;37874;53.158;6.766;2024-03-23T08:28:49;3.22;;;0.95;;
51814;SDS011;37874;53.158;6.766;2024-03-23T08:31:20;4.32;;;1.20;;
51814;SDS011;37874;53.158;6.766;2024-03-23T08:33:48;3.00;;;0.90;;
51814;SDS011;37874;53.158;6.766;2024-03-23T08:36:15;4.10;;;0.90;;
51814;SDS011;37874;53.158;6.766;2024-03-23T08:38:41;4.40;;;0.77;;
51814;SDS011;37874;53.158;6.766;2024-03-23T08:41:08;4.63;;;0.80;;
51814;SDS011;37874;53.158;6.766;2024-03-23T08:43:37;1.65;;;0.52;;
51814;SDS011;37874;53.158;6.766;2024-03-23T08:46:05;5.25;;;0.93;;
51814;SDS011;37874;53.158;6.766;2024-03-23T08:48:39;3.47;;;0.80;;
51814;SDS011;37874;53.158;6.766;2024-03-23T08:51:09;2.45;;;0.80;;
51814;SDS011;37874;53.158;6.766;2024-03-23T08:53:38;2.88;;;0.80;;
51814;SDS011;37874;53.158;6.766;2024-03-23T08:56:07;2.75;;;0.60;;
51814;SDS011;37874;53.158;6.766;2024-03-23T08:58:37;2.13;;;0.63;;
51814;SDS011;37874;53.158;6.766;2024-03-23T09:03:37;3.33;;;0.80;;
51814;SDS011;37874;53.158;6.766;2024-03-23T09:06:16;11.93;;;1.02;;
51814;SDS011;37874;53.158;6.766;2024-03-23T09:08:44;2.60;;;0.70;;
51814;SDS011;37874;53.158;6.766;2024-03-23T09:11:16;3.33;;;0.65;;
51814;SDS011;37874;53.158;6.766;2024-03-23T09:13:42;3.60;;;0.80;;
51814;SDS011;37874;53.158;6.766;2024-03-23T09:18:40;2.13;;;0.70;;
51814;SDS011;37874;53.158;6.766;2024-03-23T09:21:15;2.47;;;0.57;;
51814;SDS011;37874;53.158;6.766;2024-03-23T09:23:48;3.05;;;0.90;;
51814;SDS011;37874;53.158;6.766;2024-03-23T09:26:16;2.42;;;0.63;;
51814;SDS011;37874;53.158;6.766;2024-03-23T09:28:58;3.22;;;0.73;;
51814;SDS011;37874;53.158;6.766;2024-03-23T09:31:27;3.45;;;0.70;;
51814;SDS011;37874;53.158;6.766;2024-03-23T09:33:56;3.50;;;0.70;;
51814;SDS011;37874;53.158;6.766;2024-03-23T09:36:26;2.13;;;0.60;;
51814;SDS011;37874;53.158;6.766;2024-03-23T09:38:52;2.75;;;0.70;;
51814;SDS011;37874;53.158;6.766;2024-03-23T09:41:18;3.17;;;0.90;;
51814;SDS011;37874;53.158;6.766;2024-03-23T09:43:56;3.50;;;0.77;;
51814;SDS011;37874;53.158;6.766;2024-03-23T09:46:23;4.13;;;0.75;;
51814;SDS011;37874;53.158;6.766;2024-03-23T09:48:51;2.58;;;0.80;;
51814;SDS011;37874;53.158;6.766;2024-03-23T09:51:19;2.63;;;0.80;;
51814;SDS011;37874;53.158;6.766;2024-03-23T09:53:45;6.35;;;1.02;;
51814;SDS011;37874;53.158;6.766;2024-03-23T09:56:10;3.95;;;0.88;;
51814;SDS011;37874;53.158;6.766;2024-03-23T09:58:36;3.70;;;0.85;;
51814;SDS011;37874;53.158;6.766;2024-03-23T10:03:46;4.10;;;0.88;;
51814;SDS011;37874;53.158;6.766;2024-03-23T10:06:13;2.55;;;0.90;;
51814;SDS011;37874;53.158;6.766;2024-03-23T10:08:40;2.50;;;0.75;;
51814;SDS011;37874;53.158;6.766;2024-03-23T10:14:00;2.65;;;0.88;;
51814;SDS011;37874;53.158;6.766;2024-03-23T10:16:25;3.10;;;0.60;;
51814;SDS011;37874;53.158;6.766;2024-03-23T10:18:53;2.80;;;0.85;;
51814;SDS011;37874;53.158;6.766;2024-03-23T10:21:20;4.10;;;0.80;;
51814;SDS011;37874;53.158;6.766;2024-03-23T10:23:46;2.20;;;0.63;;
51814;SDS011;37874;53.158;6.766;2024-03-23T10:28:56;2.13;;;0.63;;
51814;SDS011;37874;53.158;6.766;2024-03-23T10:31:34;3.38;;;1.05;;
51814;SDS011;37874;53.158;6.766;2024-03-23T10:34:02;4.25;;;0.82;;
51814;SDS011;37874;53.158;6.766;2024-03-23T10:36:29;3.63;;;1.05;;
51814;SDS011;37874;53.158;6.766;2024-03-23T10:39:08;2.65;;;0.70;;
51814;SDS011;37874;53.158;6.766;2024-03-23T10:41:38;2.65;;;0.80;;
51814;SDS011;37874;53.158;6.766;2024-03-23T10:44:06;4.05;;;0.90;;
51814;SDS011;37874;53.158;6.766;2024-03-23T10:46:42;4.95;;;0.90;;
51814;SDS011;37874;53.158;6.766;2024-03-23T10:49:08;4.35;;;0.80;;
51814;SDS011;37874;53.158;6.766;2024-03-23T10:51:34;5.95;;;0.98;;
51814;SDS011;37874;53.158;6.766;2024-03-23T10:54:06;3.83;;;1.00;;
51814;SDS011;37874;53.158;6.766;2024-03-23T10:56:34;5.95;;;1.00;;
51814;SDS011;37874;53.158;6.766;2024-03-23T10:59:03;4.20;;;1.25;;
51814;SDS011;37874;53.158;6.766;2024-03-23T11:01:36;4.35;;;1.10;;
51814;SDS011;37874;53.158;6.766;2024-03-23T11:04:30;8.40;;;1.70;;
51814;SDS011;37874;53.158;6.766;2024-03-23T11:09:55;7.40;;;2.13;;
51814;SDS011;37874;53.158;6.766;2024-03-23T11:12:27;4.85;;;1.13;;
51814;SDS011;37874;53.158;6.766;2024-03-23T11:17:42;3.88;;;1.30;;
51814;SDS011;37874;53.158;6.766;2024-03-23T11:20:39;6.45;;;1.65;;
51814;SDS011;37874;53.158;6.766;2024-03-23T11:23:06;4.47;;;1.23;;
51814;SDS011;37874;53.158;6.766;2024-03-23T11:25:33;5.20;;;1.45;;
51814;SDS011;37874;53.158;6.766;2024-03-23T11:30:45;4.18;;;1.35;;
51814;SDS011;37874;53.158;6.766;2024-03-23T11:33:12;5.57;;;1.33;;
51814;SDS011;37874;53.158;6.766;2024-03-23T11:35:41;3.25;;;1.20;;
51814;SDS011;37874;53.158;6.766;2024-03-23T11:38:10;4.10;;;1.38;;
51814;SDS011;37874;53.158;6.766;2024-03-23T11:40:58;5.28;;;1.40;;
51814;SDS011;37874;53.158;6.766;2024-03-23T11:43:31;4.35;;;1.40;;
51814;SDS011;37874;53.158;6.766;2024-03-23T11:45:57;5.88;;;1.95;;
51814;SDS011;37874;53.158;6.766;2024-03-23T11:48:25;6.47;;;1.60;;
51814;SDS011;37874;53.158;6.766;2024-03-23T11:50:56;5.32;;;1.23;;
51814;SDS011;37874;53.158;6.766;2024-03-23T11:53:23;5.30;;;1.55;;
51814;SDS011;37874;53.158;6.766;2024-03-23T11:55:55;4.40;;;1.30;;
51814;SDS011;37874;53.158;6.766;2024-03-23T11:58:32;4.68;;;1.40;;
51814;SDS011;37874;53.158;6.766;2024-03-23T12:01:00;5.40;;;1.30;;
51814;SDS011;37874;53.158;6.766;2024-03-23T12:03:30;5.72;;;1.55;;
51814;SDS011;37874;53.158;6.766;2024-03-23T12:05:58;4.90;;;1.45;;
51814;SDS011;37874;53.158;6.766;2024-03-23T12:11:08;4.32;;;1.27;;
51814;SDS011;37874;53.158;6.766;2024-03-23T12:13:41;4.55;;;1.30;;
51814;SDS011;37874;53.158;6.766;2024-03-23T12:18:37;2.60;;;1.00;;
51814;SDS011;37874;53.158;6.766;2024-03-23T12:21:05;4.53;;;0.95;;
51814;SDS011;37874;53.158;6.766;2024-03-23T12:23:33;4.80;;;1.25;;
51814;SDS011;37874;53.158;6.766;2024-03-23T12:26:00;4.78;;;1.30;;
51814;SDS011;37874;53.158;6.766;2024-03-23T12:28:27;3.38;;;1.08;;
51814;SDS011;37874;53.158;6.766;2024-03-23T12:30:53;2.20;;;1.10;;
51814;SDS011;37874;53.158;6.766;2024-03-23T12:33:19;4.20;;;1.05;;
51814;SDS011;37874;53.158;6.766;2024-03-23T12:35:46;4.72;;;1.10;;
51814;SDS011;37874;53.158;6.766;2024-03-23T12:38:12;3.58;;;1.02;;
51814;SDS011;37874;53.158;6.766;2024-03-23T12:40:40;3.20;;;1.30;;
51814;SDS011;37874;53.158;6.766;2024-03-23T12:43:12;3.67;;;1.17;;
51814;SDS011;37874;53.158;6.766;2024-03-23T12:45:40;2.20;;;0.80;;
51814;SDS011;37874;53.158;6.766;2024-03-23T12:48:06;4.50;;;1.33;;
51814;SDS011;37874;53.158;6.766;2024-03-23T12:50:32;3.08;;;1.20;;
51814;SDS011;37874;53.158;6.766;2024-03-23T12:52:59;4.20;;;1.00;;
51814;SDS011;37874;53.158;6.766;2024-03-23T12:55:24;3.33;;;0.80;;
51814;SDS011;37874;53.158;6.766;2024-03-23T12:57:51;4.85;;;1.23;;
51814;SDS011;37874;53.158;6.766;2024-03-23T13:00:16;8.70;;;1.83;;
51814;SDS011;37874;53.158;6.766;2024-03-23T13:02:42;11.48;;;1.42;;
51814;SDS011;37874;53.158;6.766;2024-03-23T13:05:10;7.95;;;1.25;;
51814;SDS011;37874;53.158;6.766;2024-03-23T13:07:36;7.05;;;1.02;;
51814;SDS011;37874;53.158;6.766;2024-03-23T13:10:04;6.75;;;1.10;;
51814;SDS011;37874;53.158;6.766;2024-03-23T13:12:30;7.60;;;1.33;;
51814;SDS011;37874;53.158;6.766;2024-03-23T13:14:57;8.02;;;1.10;;
51814;SDS011;37874;53.158;6.766;2024-03-23T13:17:25;7.68;;;1.10;;
51814;SDS011;37874;53.158;6.766;2024-03-23T13:19:54;8.45;;;1.20;;
51814;SDS011;37874;53.158;6.766;2024-03-23T13:22:21;4.18;;;0.80;;
51814;SDS011;37874;53.158;6.766;2024-03-23T13:24:48;5.32;;;0.80;;
51814;SDS011;37874;53.158;6.766;2024-03-23T13:27:15;2.85;;;0.80;;
51814;SDS011;37874;53.158;6.766;2024-03-23T13:29:43;3.88;;;0.90;;
51814;SDS011;37874;53.158;6.766;2024-03-23T13:32:12;6.05;;;1.27;;
51814;SDS011;37874;53.158;6.766;2024-03-23T13:34:40;9.90;;;1.10;;
51814;SDS011;37874;53.158;6.766;2024-03-23T13:37:06;4.60;;;0.90;;
51814;SDS011;37874;53.158;6.766;2024-03-23T13:39:33;5.97;;;0.80;;
51814;SDS011;37874;53.158;6.766;2024-03-23T13:41:59;6.57;;;1.00;;
51814;SDS011;37874;53.158;6.766;2024-03-23T13:44:40;5.20;;;0.65;;
51814;SDS011;37874;53.158;6.766;2024-03-23T13:47:09;3.38;;;0.70;;
51814;SDS011;37874;53.158;6.766;2024-03-23T13:49:36;5.20;;;0.88;;
51814;SDS011;37874;53.158;6.766;2024-03-23T13:52:03;2.95;;;0.80;;
51814;SDS011;37874;53.158;6.766;2024-03-23T13:54:30;6.65;;;1.08;;
51814;SDS011;37874;53.158;6.766;2024-03-23T13:56:58;3.45;;;0.93;;
51814;SDS011;37874;53.158;6.766;2024-03-23T13:59:30;6.20;;;1.10;;
51814;SDS011;37874;53.158;6.766;2024-03-23T14:02:00;4.40;;;0.80;;
51814;SDS011;37874;53.158;6.766;2024-03-23T14:04:27;6.28;;;0.90;;
51814;SDS011;37874;53.158;6.766;2024-03-23T14:06:54;4.88;;;1.00;;
51814;SDS011;37874;53.158;6.766;2024-03-23T14:09:23;4.90;;;0.80;;
51814;SDS011;37874;53.158;6.766;2024-03-23T14:11:51;5.47;;;1.15;;
51814;SDS011;37874;53.158;6.766;2024-03-23T14:14:17;4.60;;;0.75;;
51814;SDS011;37874;53.158;6.766;2024-03-23T14:19:12;3.08;;;0.77;;
51814;SDS011;37874;53.158;6.766;2024-03-23T14:21:47;4.22;;;0.90;;
51814;SDS011;37874;53.158;6.766;2024-03-23T14:26:39;6.30;;;1.35;;
51814;SDS011;37874;53.158;6.766;2024-03-23T14:29:16;3.63;;;0.95;;
51814;SDS011;37874;53.158;6.766;2024-03-23T14:31:51;4.25;;;0.85;;
51814;SDS011;37874;53.158;6.766;2024-03-23T14:34:25;4.63;;;1.13;;
51814;SDS011;37874;53.158;6.766;2024-03-23T14:36:58;5.03;;;1.10;;
51814;SDS011;37874;53.158;6.766;2024-03-23T14:39:26;4.78;;;1.42;;
51814;SDS011;37874;53.158;6.766;2024-03-23T14:41:51;3.92;;;1.00;;
51814;SDS011;37874;53.158;6.766;2024-03-23T14:44:21;3.25;;;1.00;;
51814;SDS011;37874;53.158;6.766;2024-03-23T14:46:50;3.13;;;0.73;;
51814;SDS011;37874;53.158;6.766;2024-03-23T14:49:19;2.60;;;0.80;;
51814;SDS011;37874;53.158;6.766;2024-03-23T14:51:50;8.38;;;1.00;;
51814;SDS011;37874;53.158;6.766;2024-03-23T14:54:16;2.60;;;0.70;;
51814;SDS011;37874;53.158;6.766;2024-03-23T14:56:43;5.25;;;1.13;;
51814;SDS011;37874;53.158;6.766;2024-03-23T14:59:09;4.53;;;0.77;;
51814;SDS011;37874;53.158;6.766;2024-03-23T15:01:44;6.47;;;0.90;;
51814;SDS011;37874;53.158;6.766;2024-03-23T15:04:10;3.38;;;1.10;;
51814;SDS011;37874;53.158;6.766;2024-03-23T15:06:41;4.18;;;0.90;;
51814;SDS011;37874;53.158;6.766;2024-03-23T15:14:41;3.53;;;0.85;;
51814;SDS011;37874;53.158;6.766;2024-03-23T15:17:19;3.45;;;0.90;;
51814;SDS011;37874;53.158;6.766;2024-03-23T15:19:47;5.38;;;1.13;;
51814;SDS011;37874;53.158;6.766;2024-03-23T15:22:17;5.75;;;1.15;;
51814;SDS011;37874;53.158;6.766;2024-03-23T15:24:45;4.32;;;0.98;;
51814;SDS011;37874;53.158;6.766;2024-03-23T15:27:13;5.25;;;0.82;;
51814;SDS011;37874;53.158;6.766;2024-03-23T15:29:45;4.55;;;0.80;;
51814;SDS011;37874;53.158;6.766;2024-03-23T15:32:12;4.47;;;0.90;;
51814;SDS011;37874;53.158;6.766;2024-03-23T15:34:41;3.03;;;0.75;;
51814;SDS011;37874;53.158;6.766;2024-03-23T15:37:07;3.75;;;0.75;;
51814;SDS011;37874;53.158;6.766;2024-03-23T15:42:03;3.78;;;0.90;;
51814;SDS011;37874;53.158;6.766;2024-03-23T15:44:33;4.30;;;1.08;;
51814;SDS011;37874;53.158;6.766;2024-03-23T15:47:00;3.17;;;0.73;;
51814;SDS011;37874;53.158;6.766;2024-03-23T15:49:26;4.93;;;0.90;;
51814;SDS011;37874;53.158;6.766;2024-03-23T15:51:55;4.15;;;1.00;;
51814;SDS011;37874;53.158;6.766;2024-03-23T15:54:24;3.42;;;1.02;;
51814;SDS011;37874;53.158;6.766;2024-03-23T15:56:50;4.60;;;0.90;;
51814;SDS011;37874;53.158;6.766;2024-03-23T15:59:16;2.42;;;0.80;;
51814;SDS011;37874;53.158;6.766;2024-03-23T16:01:43;3.55;;;0.75;;
51814;SDS011;37874;53.158;6.766;2024-03-23T16:04:17;3.10;;;0.85;;
51814;SDS011;37874;53.158;6.766;2024-03-23T16:06:47;3.78;;;0.70;;
51814;SDS011;37874;53.158;6.766;2024-03-23T16:11:47;3.58;;;0.80;;
51814;SDS011;37874;53.158;6.766;2024-03-23T16:14:17;3.85;;;0.90;;
51814;SDS011;37874;53.158;6.766;2024-03-23T16:16:44;3.03;;;0.70;;
51814;SDS011;37874;53.158;6.766;2024-03-23T16:19:11;4.68;;;1.00;;
51814;SDS011;37874;53.158;6.766;2024-03-23T16:21:49;5.80;;;0.75;;
51814;SDS011;37874;53.158;6.766;2024-03-23T16:24:16;4.63;;;0.75;;
51814;SDS011;37874;53.158;6.766;2024-03-23T16:26:43;3.85;;;0.80;;
51814;SDS011;37874;53.158;6.766;2024-03-23T16:29:10;3.60;;;0.90;;
51814;SDS011;37874;53.158;6.766;2024-03-23T16:31:38;3.80;;;1.00;;
51814;SDS011;37874;53.158;6.766;2024-03-23T16:34:05;2.95;;;0.77;;
51814;SDS011;37874;53.158;6.766;2024-03-23T16:36:31;3.08;;;0.80;;
51814;SDS011;37874;53.158;6.766;2024-03-23T16:38:57;4.80;;;0.90;;
51814;SDS011;37874;53.158;6.766;2024-03-23T16:41:23;2.78;;;0.80;;
51814;SDS011;37874;53.158;6.766;2024-03-23T16:43:48;3.92;;;0.95;;
51814;SDS011;37874;53.158;6.766;2024-03-23T16:46:14;4.50;;;0.98;;
51814;SDS011;37874;53.158;6.766;2024-03-23T16:48:43;3.05;;;0.75;;
51814;SDS011;37874;53.158;6.766;2024-03-23T16:51:11;3.42;;;0.98;;
51814;SDS011;37874;53.158;6.766;2024-03-23T16:53:38;3.45;;;0.88;;
51814;SDS011;37874;53.158;6.766;2024-03-23T16:56:07;2.85;;;0.80;;